Time;durP1;ratioP1;P1;durP2;ratioP2;P2;SDS_P1;SDS_P2;PMS_P1;PMS_P2;Temp;Humidity;BMP_temperature;BMP_pressure;BME280_temperature;BME280_humidity;BME280_pressure;Samples;Min_cycle;Max_cycle;Signal;HPM_P1;HPM_P2
2022/09/28 00:01:54;;;;;;;6.57;1.65;;;12.30;99.90;;;;;;4990492;28;25080;-72
2022/09/28 00:04:20;;;;;;;4.70;1.83;;;12.20;99.90;;;;;;4991988;28;25167;-72
2022/09/28 00:06:46;;;;;;;7.15;2.00;;;12.40;99.90;;;;;;4987988;28;25153;-73
2022/09/28 00:09:16;;;;;;;3.55;1.75;;;12.30;99.90;;;;;;4988468;28;25067;-71
2022/09/28 00:11:42;;;;;;;2.63;1.63;;;12.40;99.90;;;;;;4987391;28;25125;-72
2022/09/28 00:14:09;;;;;;;4.82;1.13;;;12.30;99.90;;;;;;4983205;28;25082;-71
2022/09/28 00:16:42;;;;;;;3.95;1.50;;;12.40;99.90;;;;;;4989002;28;25017;-70
2022/09/28 00:19:09;;;;;;;5.57;1.73;;;12.20;99.90;;;;;;4984884;28;25171;-72
2022/09/28 00:21:37;;;;;;;3.10;1.17;;;12.20;99.90;;;;;;4977707;28;25059;-72
2022/09/28 00:24:17;;;;;;;5.97;2.00;;;12.20;99.90;;;;;;4987837;28;25125;-71
2022/09/28 00:26:49;;;;;;;2.38;1.23;;;12.10;99.90;;;;;;4983051;28;25072;-72
2022/09/28 00:29:32;;;;;;;5.10;1.23;;;12.00;99.90;;;;;;4985474;28;25174;-71
2022/09/28 00:32:06;;;;;;;5.50;1.65;;;11.90;99.90;;;;;;4977579;28;25074;-71
2022/09/28 00:34:35;;;;;;;8.27;1.38;;;11.90;99.90;;;;;;5006754;28;25050;-69
2022/09/28 00:37:02;;;;;;;4.95;1.13;;;11.80;99.90;;;;;;4989604;28;25060;-71
2022/09/28 00:39:30;;;;;;;4.80;1.25;;;11.80;99.90;;;;;;4991006;28;25097;-71
2022/09/28 00:41:56;;;;;;;4.43;2.08;;;11.90;99.90;;;;;;4988582;28;25057;-71
2022/09/28 00:44:25;;;;;;;3.60;1.33;;;11.80;99.90;;;;;;4998739;28;25077;-71
2022/09/28 00:46:58;;;;;;;4.30;1.52;;;11.90;99.90;;;;;;5000322;28;25060;-72
2022/09/28 00:50:00;;;;;;;1.95;1.15;;;11.80;99.90;;;;;;4989433;28;25051;-71
2022/09/28 00:52:43;;;;;;;1.38;0.93;;;11.90;99.90;;;;;;4980386;28;25068;-72
2022/09/28 00:55:17;;;;;;;4.60;1.40;;;11.80;99.90;;;;;;4991464;28;25151;-71
2022/09/28 00:57:49;;;;;;;5.78;1.50;;;11.70;99.90;;;;;;4994384;28;25093;-71
2022/09/28 01:00:14;;;;;;;1.08;0.90;;;11.60;99.90;;;;;;5008895;28;25066;-72
2022/09/28 01:02:41;;;;;;;2.65;0.82;;;11.60;99.90;;;;;;5006212;28;25075;-72
2022/09/28 01:05:09;;;;;;;1.30;0.95;;;11.60;99.90;;;;;;5015107;28;25067;-72
2022/09/28 01:07:35;;;;;;;3.40;1.00;;;11.60;99.90;;;;;;4984260;28;25061;-72
2022/09/28 01:10:01;;;;;;;1.23;0.75;;;11.50;99.90;;;;;;4995126;28;25100;-71
2022/09/28 01:12:27;;;;;;;2.75;1.02;;;11.50;99.90;;;;;;4987597;28;25127;-71
2022/09/28 01:14:53;;;;;;;0.70;0.70;;;11.40;99.90;;;;;;4998241;28;25143;-73
2022/09/28 01:17:28;;;;;;;1.15;0.90;;;11.50;99.90;;;;;;4995683;28;25116;-71
2022/09/28 01:20:17;;;;;;;1.55;0.60;;;11.40;99.90;;;;;;4989033;28;25047;-73
2022/09/28 01:23:11;;;;;;;0.77;0.70;;;11.40;99.90;;;;;;4992073;28;25095;-72
2022/09/28 01:25:51;;;;;;;3.25;0.47;;;11.40;99.90;;;;;;4994430;28;25156;-72
2022/09/28 01:28:19;;;;;;;0.65;0.40;;;11.40;99.90;;;;;;4990789;28;25055;-71
2022/09/28 01:30:54;;;;;;;5.32;0.63;;;11.60;99.90;;;;;;5001515;28;25076;-71
2022/09/28 01:33:25;;;;;;;2.85;1.20;;;11.60;99.90;;;;;;4990490;28;25102;-70
2022/09/28 01:36:01;;;;;;;2.33;0.47;;;11.60;99.90;;;;;;5000128;28;25091;-71
2022/09/28 01:38:52;;;;;;;1.95;0.50;;;11.60;99.90;;;;;;5009083;28;25130;-71
2022/09/28 01:41:19;;;;;;;5.63;0.45;;;11.50;99.90;;;;;;4983795;28;25119;-72
2022/09/28 01:43:50;;;;;;;0.98;0.45;;;11.50;99.90;;;;;;4994836;28;25142;-72
2022/09/28 01:46:43;;;;;;;1.95;0.80;;;11.60;99.90;;;;;;4975387;28;25053;-72
2022/09/28 01:49:30;;;;;;;3.92;0.55;;;11.60;99.90;;;;;;4992979;28;24988;-73
2022/09/28 01:52:13;;;;;;;0.95;0.40;;;11.50;99.90;;;;;;4992690;28;25125;-77
2022/09/28 01:54:54;;;;;;;2.67;0.30;;;11.70;99.90;;;;;;4988362;28;25118;-75
2022/09/28 01:57:27;;;;;;;1.48;0.65;;;11.60;99.90;;;;;;4982932;28;25052;-75
2022/09/28 02:00:03;;;;;;;2.97;0.68;;;11.60;99.90;;;;;;4980140;28;25154;-73
2022/09/28 02:03:04;;;;;;;1.23;0.32;;;11.70;99.90;;;;;;4983038;28;25062;-74
2022/09/28 02:05:34;;;;;;;0.95;0.50;;;11.70;99.90;;;;;;4966792;28;25117;-74
2022/09/28 02:08:24;;;;;;;2.55;0.28;;;11.80;99.90;;;;;;4977941;28;25058;-77
2022/09/28 02:11:02;;;;;;;0.52;0.45;;;11.80;99.90;;;;;;4985477;28;25068;-75
2022/09/28 02:13:38;;;;;;;2.00;0.40;;;11.90;99.90;;;;;;4985412;28;25067;-75
2022/09/28 02:16:26;;;;;;;1.05;0.63;;;12.00;99.90;;;;;;4986361;28;25050;-76
2022/09/28 02:18:52;;;;;;;6.20;0.93;;;12.10;99.90;;;;;;4979502;28;25076;-74
2022/09/28 02:21:45;;;;;;;4.00;0.60;;;12.10;99.90;;;;;;4977091;28;25163;-75
2022/09/28 02:24:16;;;;;;;1.17;0.70;;;12.10;99.90;;;;;;4982179;28;25135;-73
2022/09/28 02:26:46;;;;;;;1.88;0.65;;;12.20;99.90;;;;;;4985890;28;25080;-74
2022/09/28 02:29:12;;;;;;;4.95;0.70;;;12.30;99.90;;;;;;5000275;28;25068;-74
2022/09/28 02:31:38;;;;;;;1.90;0.80;;;12.40;99.90;;;;;;4979468;28;25096;-74
2022/09/28 02:34:03;;;;;;;5.13;0.80;;;12.40;99.90;;;;;;4996967;28;25082;-73
2022/09/28 02:36:29;;;;;;;1.90;0.77;;;12.40;99.90;;;;;;4994042;28;25067;-74
2022/09/28 02:38:57;;;;;;;1.77;0.95;;;12.50;99.90;;;;;;4987702;28;25155;-73
2022/09/28 02:41:25;;;;;;;2.72;0.98;;;12.40;99.90;;;;;;4987738;28;25061;-73
2022/09/28 02:44:21;;;;;;;3.05;0.80;;;12.30;99.90;;;;;;4988760;28;25083;-71
2022/09/28 02:46:56;;;;;;;4.05;0.77;;;12.20;99.90;;;;;;4983355;28;25056;-72
2022/09/28 02:49:35;;;;;;;6.40;0.77;;;12.20;99.90;;;;;;4985848;28;25101;-73
2022/09/28 02:52:31;;;;;;;3.72;0.80;;;12.10;99.90;;;;;;4986457;28;25082;-72
2022/09/28 02:55:18;;;;;;;1.42;0.77;;;12.20;99.90;;;;;;4992336;28;25087;-74
2022/09/28 02:58:17;;;;;;;5.47;0.82;;;12.20;99.90;;;;;;5003055;28;25073;-73
2022/09/28 03:01:16;;;;;;;3.30;0.75;;;12.10;99.90;;;;;;5001906;28;25155;-74
2022/09/28 03:03:52;;;;;;;5.43;0.82;;;12.10;99.90;;;;;;4989610;28;25098;-73
2022/09/28 03:06:28;;;;;;;5.85;0.65;;;12.20;99.90;;;;;;4995609;28;25061;-73
2022/09/28 03:09:03;;;;;;;3.45;0.70;;;12.20;99.90;;;;;;4996002;28;25070;-74
2022/09/28 03:12:00;;;;;;;9.02;0.85;;;12.40;99.90;;;;;;4998184;28;25084;-70
2022/09/28 03:14:25;;;;;;;3.08;1.02;;;12.40;99.90;;;;;;4992204;28;25091;-71
2022/09/28 03:16:51;;;;;;;2.50;0.93;;;12.30;99.90;;;;;;4992628;28;25092;-73
2022/09/28 03:19:21;;;;;;;3.97;1.17;;;12.40;99.90;;;;;;4995397;28;25057;-72
2022/09/28 03:21:46;;;;;;;3.75;0.88;;;12.50;99.90;;;;;;4974766;28;25082;-72
2022/09/28 03:24:12;;;;;;;1.58;0.68;;;12.40;99.90;;;;;;4976193;28;25064;-72
2022/09/28 03:26:38;;;;;;;4.00;0.70;;;12.30;99.90;;;;;;4977106;28;25090;-73
2022/09/28 03:29:04;;;;;;;1.63;0.75;;;12.40;99.90;;;;;;4975658;28;25154;-72
2022/09/28 03:31:29;;;;;;;1.60;0.75;;;12.50;99.90;;;;;;4975025;28;25057;-71
2022/09/28 03:33:55;;;;;;;0.88;0.60;;;12.40;99.90;;;;;;4996086;28;25063;-73
2022/09/28 03:36:21;;;;;;;1.73;0.77;;;12.40;99.90;;;;;;4985022;28;25132;-72
2022/09/28 03:38:46;;;;;;;1.77;0.80;;;12.50;99.90;;;;;;4985707;28;25057;-73
2022/09/28 03:41:12;;;;;;;5.80;0.90;;;12.50;99.90;;;;;;4986012;28;25086;-72
2022/09/28 03:43:38;;;;;;;1.42;0.52;;;12.40;99.90;;;;;;4984735;28;25080;-72
2022/09/28 03:46:03;;;;;;;5.13;0.77;;;12.30;99.90;;;;;;4983395;28;25070;-71
2022/09/28 03:48:31;;;;;;;2.38;1.60;;;12.30;99.90;;;;;;4990438;28;25093;-72
2022/09/28 03:50:59;;;;;;;1.38;0.80;;;12.20;99.90;;;;;;4981833;28;25088;-71
2022/09/28 03:53:25;;;;;;;2.20;0.60;;;12.30;99.90;;;;;;4990096;28;25155;-72
2022/09/28 03:55:54;;;;;;;1.83;0.93;;;12.40;99.90;;;;;;4983572;28;25050;-72
2022/09/28 03:58:20;;;;;;;4.47;0.82;;;12.20;99.90;;;;;;4989583;28;25085;-73
2022/09/28 04:00:50;;;;;;;5.50;0.73;;;12.30;99.90;;;;;;4985990;28;25097;-73
2022/09/28 04:03:15;;;;;;;0.95;0.43;;;12.20;99.90;;;;;;4995581;28;25134;-72
2022/09/28 04:05:48;;;;;;;3.08;0.80;;;12.20;99.90;;;;;;4984553;28;25057;-72
2022/09/28 04:08:14;;;;;;;1.42;0.68;;;12.30;99.90;;;;;;4990124;28;25084;-72
2022/09/28 04:10:39;;;;;;;2.35;0.85;;;12.10;99.90;;;;;;4985443;28;25079;-72
2022/09/28 04:13:05;;;;;;;1.80;0.90;;;12.00;99.90;;;;;;4983231;28;25149;-72
2022/09/28 04:15:30;;;;;;;3.88;1.17;;;12.10;99.90;;;;;;4996572;28;25124;-71
2022/09/28 04:17:56;;;;;;;5.00;0.80;;;12.10;99.90;;;;;;4998482;28;25081;-72
2022/09/28 04:20:22;;;;;;;2.55;0.57;;;12.00;99.90;;;;;;5006287;28;25169;-72
2022/09/28 04:22:47;;;;;;;3.78;0.80;;;11.90;99.90;;;;;;4997240;28;25146;-73
2022/09/28 04:25:13;;;;;;;2.40;0.95;;;11.90;99.90;;;;;;4994091;28;25125;-73
2022/09/28 04:30:23;;;;;;;0.30;0.30;;;11.90;99.90;;;;;;4989733;28;25064;-71
2022/09/28 04:32:49;;;;;;;4.82;0.60;;;11.80;99.90;;;;;;4995120;28;25139;-72
2022/09/28 04:35:14;;;;;;;4.88;0.80;;;11.80;99.90;;;;;;5001891;28;25159;-70
2022/09/28 04:37:40;;;;;;;2.65;0.50;;;11.90;99.90;;;;;;4993149;28;25070;-72
2022/09/28 04:40:06;;;;;;;0.93;0.57;;;12.10;99.90;;;;;;4986889;28;25109;-73
2022/09/28 04:42:32;;;;;;;2.25;0.70;;;12.00;99.90;;;;;;4993542;28;25065;-74
2022/09/28 04:44:59;;;;;;;0.77;0.45;;;12.10;99.90;;;;;;4988712;28;25061;-73
2022/09/28 04:47:25;;;;;;;3.20;0.50;;;12.20;99.90;;;;;;4988757;28;25052;-73
2022/09/28 04:49:51;;;;;;;0.43;0.40;;;12.10;99.90;;;;;;5000010;28;25157;-75
2022/09/28 04:52:16;;;;;;;4.22;0.70;;;12.00;99.90;;;;;;5000335;28;25096;-77
2022/09/28 04:54:42;;;;;;;2.22;0.50;;;12.10;99.90;;;;;;4991419;28;25082;-74
2022/09/28 04:57:07;;;;;;;1.23;0.80;;;12.00;99.90;;;;;;4983944;28;25078;-74
2022/09/28 04:59:33;;;;;;;1.20;0.70;;;11.90;99.90;;;;;;4991387;28;25117;-75
2022/09/28 05:01:59;;;;;;;1.77;0.60;;;11.90;99.90;;;;;;4986219;28;25173;-73
2022/09/28 05:04:24;;;;;;;5.75;0.82;;;11.90;99.90;;;;;;4994308;28;25056;-74
2022/09/28 05:06:50;;;;;;;4.53;0.70;;;12.00;99.90;;;;;;5007772;28;25089;-73
2022/09/28 05:09:15;;;;;;;5.95;0.70;;;11.90;99.90;;;;;;4988433;28;25098;-73
2022/09/28 05:11:41;;;;;;;1.45;0.85;;;12.00;99.90;;;;;;4989844;28;25157;-73
2022/09/28 05:14:07;;;;;;;3.92;0.60;;;12.10;99.90;;;;;;4991075;28;25061;-74
2022/09/28 05:16:32;;;;;;;4.10;1.02;;;12.20;99.90;;;;;;4995010;28;25072;-74
2022/09/28 05:18:59;;;;;;;3.40;0.85;;;12.10;99.90;;;;;;4986818;28;25062;-72
2022/09/28 05:21:25;;;;;;;2.55;0.95;;;12.10;99.90;;;;;;4989488;28;25074;-75
2022/09/28 05:23:51;;;;;;;2.75;1.00;;;12.20;99.90;;;;;;4998841;28;25081;-73
2022/09/28 05:26:17;;;;;;;1.40;0.85;;;12.20;99.90;;;;;;4979621;28;25070;-74
2022/09/28 05:28:43;;;;;;;5.40;0.90;;;12.20;99.90;;;;;;4981547;28;25047;-74
2022/09/28 05:31:09;;;;;;;1.88;0.68;;;12.20;99.90;;;;;;4989712;28;25074;-73
2022/09/28 05:33:35;;;;;;;2.25;0.70;;;12.20;99.90;;;;;;4988801;28;25124;-73
2022/09/28 05:36:01;;;;;;;1.23;0.70;;;12.20;99.90;;;;;;4972956;28;25056;-74
2022/09/28 05:38:28;;;;;;;0.82;0.50;;;12.10;99.90;;;;;;4977617;28;25091;-74
2022/09/28 05:40:54;;;;;;;0.85;0.50;;;12.10;99.90;;;;;;4980174;28;25044;-72
2022/09/28 05:43:19;;;;;;;1.38;0.80;;;12.10;99.90;;;;;;4987008;28;25077;-71
2022/09/28 05:45:45;;;;;;;4.10;0.93;;;12.20;99.90;;;;;;5000142;28;25141;-70
2022/09/28 05:48:10;;;;;;;0.50;0.50;;;12.20;99.90;;;;;;5004915;28;25098;-74
2022/09/28 05:50:36;;;;;;;4.30;1.17;;;12.10;99.90;;;;;;4997673;28;25144;-72
2022/09/28 05:53:07;;;;;;;1.17;0.63;;;12.10;99.90;;;;;;4990493;28;26203;-72
2022/09/28 05:55:34;;;;;;;1.77;0.80;;;12.20;99.90;;;;;;4983286;28;25083;-72
2022/09/28 05:58:01;;;;;;;4.70;0.88;;;12.20;99.90;;;;;;5004148;28;25099;-70
2022/09/28 06:00:28;;;;;;;3.38;0.88;;;12.40;99.90;;;;;;4999174;28;25108;-70
2022/09/28 06:03:02;;;;;;;1.23;1.10;;;12.30;99.90;;;;;;4986348;28;25056;-71
2022/09/28 06:05:28;;;;;;;3.00;0.85;;;12.50;99.90;;;;;;4996379;28;25074;-70
2022/09/28 06:07:58;;;;;;;3.08;0.70;;;12.50;99.90;;;;;;4993764;28;25107;-71
2022/09/28 06:10:25;;;;;;;5.28;0.82;;;12.50;99.90;;;;;;5005349;28;25060;-71
2022/09/28 06:12:52;;;;;;;2.97;0.80;;;12.50;99.90;;;;;;4994618;28;25083;-71
2022/09/28 06:15:18;;;;;;;3.10;0.90;;;12.60;99.90;;;;;;4986623;28;25049;-71
2022/09/28 06:17:44;;;;;;;1.42;0.90;;;12.60;99.90;;;;;;5005265;28;25061;-70
2022/09/28 06:20:10;;;;;;;0.80;0.60;;;12.50;99.90;;;;;;4991352;28;25112;-70
2022/09/28 06:22:36;;;;;;;3.92;0.75;;;12.50;99.90;;;;;;5000678;28;25108;-70
2022/09/28 06:25:02;;;;;;;0.73;0.73;;;12.50;99.90;;;;;;4993073;28;25095;-71
2022/09/28 06:27:28;;;;;;;2.20;0.60;;;12.40;99.90;;;;;;4996719;28;25080;-70
2022/09/28 06:29:53;;;;;;;1.90;0.98;;;12.50;99.90;;;;;;4995722;28;25162;-71
2022/09/28 06:32:19;;;;;;;6.40;2.92;;;12.50;99.90;;;;;;4995239;28;25066;-71
2022/09/28 06:34:44;;;;;;;5.07;0.98;;;12.50;99.90;;;;;;4992791;28;25069;-72
2022/09/28 06:37:10;;;;;;;4.30;1.77;;;12.60;99.90;;;;;;4996138;28;25069;-70
2022/09/28 06:39:35;;;;;;;3.58;1.05;;;12.50;99.90;;;;;;4981798;28;25060;-72
2022/09/28 06:42:02;;;;;;;6.35;1.15;;;12.40;99.90;;;;;;4984868;28;25132;-72
2022/09/28 06:44:28;;;;;;;3.63;1.10;;;12.30;99.90;;;;;;4982254;28;25081;-70
2022/09/28 06:46:57;;;;;;;4.75;0.63;;;12.30;99.90;;;;;;4979849;28;25140;-72
2022/09/28 06:49:23;;;;;;;7.07;1.05;;;12.20;99.90;;;;;;4978487;28;25056;-71
2022/09/28 06:51:49;;;;;;;2.47;0.95;;;12.30;99.90;;;;;;4987795;28;25235;-71
2022/09/28 06:54:14;;;;;;;10.85;1.20;;;12.30;99.90;;;;;;4980406;28;25108;-71
2022/09/28 06:56:40;;;;;;;5.30;0.90;;;12.40;99.90;;;;;;4993705;28;25102;-73
2022/09/28 06:59:05;;;;;;;1.15;0.50;;;12.40;99.90;;;;;;4982069;28;25076;-71
2022/09/28 07:01:31;;;;;;;5.00;0.90;;;12.40;99.90;;;;;;4988842;28;25096;-71
2022/09/28 07:03:56;;;;;;;1.73;0.68;;;12.50;99.90;;;;;;4984116;28;25085;-71
2022/09/28 07:06:25;;;;;;;2.38;0.82;;;12.50;99.90;;;;;;4981199;28;25069;-70
2022/09/28 07:08:51;;;;;;;3.10;1.15;;;12.50;99.90;;;;;;4987672;28;25057;-70
2022/09/28 07:11:19;;;;;;;2.40;0.90;;;12.60;99.90;;;;;;4992690;28;25121;-71
2022/09/28 07:13:44;;;;;;;1.05;0.50;;;12.80;99.90;;;;;;4996144;28;25140;-70
2022/09/28 07:16:11;;;;;;;3.28;1.00;;;12.70;99.90;;;;;;4985240;28;25065;-70
2022/09/28 07:18:37;;;;;;;2.85;1.20;;;12.70;99.90;;;;;;4993871;28;25057;-70
2022/09/28 07:21:06;;;;;;;3.95;0.95;;;12.60;99.90;;;;;;4984654;28;25056;-70
2022/09/28 07:23:31;;;;;;;3.00;0.98;;;12.70;99.90;;;;;;4991000;28;25072;-70
2022/09/28 07:26:01;;;;;;;1.50;0.80;;;12.90;99.90;;;;;;4986665;28;25087;-70
2022/09/28 07:28:27;;;;;;;2.63;0.68;;;12.90;99.90;;;;;;4984759;28;25072;-70
2022/09/28 07:30:55;;;;;;;4.88;1.05;;;13.10;99.90;;;;;;4981307;28;25158;-71
2022/09/28 07:33:22;;;;;;;5.20;0.93;;;13.20;99.90;;;;;;4981783;28;25053;-70
2022/09/28 07:35:52;;;;;;;2.58;0.77;;;13.30;99.90;;;;;;4999936;28;25157;-69
2022/09/28 07:38:18;;;;;;;4.28;0.85;;;13.20;99.90;;;;;;4984373;28;25108;-70
2022/09/28 07:43:28;;;;;;;1.52;0.68;;;13.20;99.90;;;;;;4977936;28;25128;-71
2022/09/28 07:45:53;;;;;;;2.67;0.82;;;13.50;99.90;;;;;;4994767;28;25106;-69
2022/09/28 07:48:20;;;;;;;2.90;0.50;;;13.60;99.90;;;;;;4991038;28;25062;-71
2022/09/28 07:50:53;;;;;;;4.88;0.90;;;13.50;99.90;;;;;;4983708;28;25050;-70
2022/09/28 07:53:21;;;;;;;1.42;0.80;;;13.80;99.90;;;;;;4984067;28;25075;-71
2022/09/28 07:56:05;;;;;;;2.33;0.88;;;14.00;99.90;;;;;;5005393;28;25072;-70
2022/09/28 07:58:34;;;;;;;1.58;0.70;;;14.10;99.90;;;;;;4981365;28;25070;-69
2022/09/28 08:01:14;;;;;;;4.50;0.70;;;14.00;99.90;;;;;;4978856;28;25086;-70
2022/09/28 08:03:44;;;;;;;1.67;0.93;;;14.00;99.90;;;;;;4979330;28;25149;-72
2022/09/28 08:06:11;;;;;;;2.17;0.90;;;13.80;99.90;;;;;;4981364;28;25059;-71
2022/09/28 08:08:43;;;;;;;3.25;0.82;;;13.90;99.90;;;;;;4985629;28;25081;-71
2022/09/28 08:11:10;;;;;;;4.57;0.55;;;14.20;99.90;;;;;;4981481;28;25075;-70
2022/09/28 08:13:36;;;;;;;1.52;0.52;;;14.40;99.90;;;;;;4978986;28;25093;-71
2022/09/28 08:16:03;;;;;;;6.90;0.73;;;14.50;99.90;;;;;;4985355;28;25098;-71
2022/09/28 08:18:30;;;;;;;1.65;0.55;;;14.80;99.90;;;;;;4983865;28;25072;-70
2022/09/28 08:23:40;;;;;;;1.75;0.60;;;14.90;99.90;;;;;;4981755;28;25113;-71
2022/09/28 08:26:07;;;;;;;12.18;2.95;;;15.10;99.90;;;;;;4981998;28;25146;-68
2022/09/28 08:28:34;;;;;;;0.63;0.60;;;14.90;99.90;;;;;;4977026;28;25056;-71
2022/09/28 08:31:00;;;;;;;0.57;0.50;;;14.60;99.90;;;;;;4988084;28;25073;-71
2022/09/28 08:33:26;;;;;;;1.48;0.50;;;15.00;99.90;;;;;;4981099;28;25088;-70
2022/09/28 08:35:59;;;;;;;0.65;0.60;;;15.50;99.90;;;;;;4982385;28;25051;-70
2022/09/28 08:38:26;;;;;;;3.38;0.70;;;15.50;99.90;;;;;;4985391;28;25061;-70
2022/09/28 08:41:04;;;;;;;2.63;0.82;;;15.80;99.90;;;;;;4992917;28;25099;-70
2022/09/28 08:43:44;;;;;;;0.80;0.40;;;15.80;99.90;;;;;;4995712;28;25156;-70
2022/09/28 08:46:12;;;;;;;0.57;0.43;;;15.20;99.90;;;;;;4991493;28;25050;-70
2022/09/28 08:49:04;;;;;;;0.77;0.43;;;14.80;99.90;;;;;;5010294;28;25089;-69
2022/09/28 08:52:02;;;;;;;3.75;0.65;;;14.10;99.90;;;;;;4994255;28;25079;-69
2022/09/28 08:54:59;;;;;;;0.60;0.38;;;14.40;99.90;;;;;;4984067;28;25088;-68
2022/09/28 08:57:47;;;;;;;3.28;0.63;;;14.10;99.90;;;;;;4989005;28;25087;-69
2022/09/28 09:00:21;;;;;;;0.20;0.20;;;13.90;99.90;;;;;;4983540;28;25067;-70
2022/09/28 09:02:48;;;;;;;0.98;0.60;;;14.10;99.90;;;;;;4993699;28;25076;-68
2022/09/28 09:05:18;;;;;;;0.88;0.47;;;14.10;99.90;;;;;;5000439;28;25052;-71
2022/09/28 09:08:25;;;;;;;1.55;0.52;;;14.20;99.90;;;;;;5005558;28;25074;-70
2022/09/28 09:11:07;;;;;;;3.60;0.35;;;14.10;99.90;;;;;;4985728;28;25092;-70
2022/09/28 09:13:51;;;;;;;0.50;0.32;;;13.90;99.90;;;;;;4993816;28;25083;-69
2022/09/28 09:16:21;;;;;;;1.45;0.82;;;13.60;99.90;;;;;;4994614;28;25068;-71
2022/09/28 09:18:46;;;;;;;1.67;0.65;;;13.70;99.90;;;;;;5002684;28;25068;-70
2022/09/28 09:21:21;;;;;;;1.40;0.35;;;13.80;99.90;;;;;;4995080;28;25074;-69
2022/09/28 09:24:26;;;;;;;0.68;0.40;;;13.90;99.90;;;;;;5018799;28;25065;-70
2022/09/28 09:27:04;;;;;;;1.48;0.57;;;13.70;99.90;;;;;;4992075;28;25102;-70
2022/09/28 09:29:41;;;;;;;0.98;0.70;;;13.60;99.90;;;;;;4997792;28;25126;-69
2022/09/28 09:32:25;;;;;;;0.52;0.30;;;13.60;99.90;;;;;;5012021;28;25057;-70
2022/09/28 09:35:16;;;;;;;0.80;0.30;;;13.30;99.90;;;;;;5012040;28;25088;-71
2022/09/28 09:38:05;;;;;;;0.52;0.40;;;13.30;99.90;;;;;;4998980;28;25064;-69
2022/09/28 09:40:56;;;;;;;1.00;0.52;;;13.40;99.90;;;;;;4995769;28;25078;-69
2022/09/28 09:43:54;;;;;;;2.58;0.50;;;13.60;99.90;;;;;;4987543;28;25068;-70
2022/09/28 09:46:40;;;;;;;1.90;0.50;;;13.60;99.90;;;;;;4986530;28;25064;-70
2022/09/28 09:49:11;;;;;;;0.82;0.40;;;13.80;99.90;;;;;;4990869;28;25101;-71
2022/09/28 09:52:00;;;;;;;1.00;0.40;;;13.80;99.90;;;;;;4989658;28;25155;-70
2022/09/28 09:54:28;;;;;;;1.58;0.43;;;13.50;99.90;;;;;;4997023;28;25081;-71
2022/09/28 09:57:08;;;;;;;0.47;0.30;;;13.50;99.90;;;;;;5004047;28;25065;-68
2022/09/28 09:59:38;;;;;;;1.35;0.60;;;13.60;99.90;;;;;;4986586;28;25056;-70
2022/09/28 10:02:31;;;;;;;5.30;0.93;;;13.70;99.90;;;;;;4997247;28;25097;-70
2022/09/28 10:05:03;;;;;;;;;;;13.90;99.90;;;;;;4989338;28;25069;-71
2022/09/28 10:07:37;;;;;;;2.07;0.60;;;14.10;99.90;;;;;;4982785;28;24168;-67
2022/09/28 10:10:10;;;;;;;1.80;0.45;;;14.20;99.90;;;;;;4995815;28;25064;-72
2022/09/28 10:12:35;;;;;;;1.38;0.45;;;13.90;99.90;;;;;;5003435;28;25073;-71
2022/09/28 10:15:02;;;;;;;2.17;0.40;;;13.80;99.90;;;;;;4995483;28;25083;-70
2022/09/28 10:17:27;;;;;;;1.40;0.50;;;13.80;99.90;;;;;;4999584;28;25068;-70
2022/09/28 10:19:55;;;;;;;2.60;0.70;;;13.90;99.90;;;;;;5003311;28;25130;-70
2022/09/28 10:22:24;;;;;;;0.40;0.40;;;13.90;99.90;;;;;;4993115;28;25130;-70
2022/09/28 10:24:53;;;;;;;0.77;0.50;;;13.90;99.90;;;;;;4993993;28;25101;-70
2022/09/28 10:27:24;;;;;;;3.03;0.70;;;13.60;99.90;;;;;;5016539;28;25104;-69
2022/09/28 10:30:15;;;;;;;2.15;1.00;;;13.50;99.90;;;;;;4997991;28;25055;-69
2022/09/28 10:32:44;;;;;;;1.88;0.50;;;13.60;99.90;;;;;;4995138;28;25107;-68
2022/09/28 10:35:25;;;;;;;0.45;0.30;;;13.70;99.90;;;;;;5003461;28;25102;-72
2022/09/28 10:37:58;;;;;;;2.80;0.40;;;13.60;99.90;;;;;;4991543;28;25056;-69
2022/09/28 10:40:43;;;;;;;3.70;0.50;;;13.70;99.90;;;;;;4992077;28;25080;-72
2022/09/28 10:43:29;;;;;;;4.22;0.50;;;13.80;99.90;;;;;;4992839;28;25065;-70
2022/09/28 10:46:08;;;;;;;4.65;0.60;;;13.90;99.90;;;;;;4978250;28;25070;-71
2022/09/28 10:48:52;;;;;;;0.85;0.60;;;13.80;99.90;;;;;;4996864;28;25077;-69
2022/09/28 10:51:18;;;;;;;1.55;0.40;;;13.90;99.90;;;;;;4993333;28;25090;-71
2022/09/28 10:54:01;;;;;;;2.47;0.65;;;14.00;99.90;;;;;;4989747;28;25086;-70
2022/09/28 10:56:28;;;;;;;;;;;14.20;99.90;;;;;;4994319;28;25141;-69
2022/09/28 10:58:54;;;;;;;2.10;1.42;;;14.30;99.90;;;;;;4978409;28;24150;-70
2022/09/28 11:01:24;;;;;;;5.95;0.43;;;14.50;99.90;;;;;;4990034;28;25073;-70
2022/09/28 11:04:02;;;;;;;3.30;0.88;;;14.60;99.90;;;;;;4986636;28;25064;-69
2022/09/28 11:06:31;;;;;;;1.48;0.52;;;14.60;99.90;;;;;;4993805;28;25045;-70
2022/09/28 11:09:01;;;;;;;0.30;0.30;;;14.70;99.90;;;;;;4996415;28;25140;-71
2022/09/28 11:11:28;;;;;;;1.67;0.38;;;15.00;99.90;;;;;;4996230;28;25110;-70
2022/09/28 11:13:59;;;;;;;1.58;0.43;;;15.10;99.90;;;;;;4984938;28;25143;-69
2022/09/28 11:16:28;;;;;;;0.73;0.63;;;15.30;99.90;;;;;;4978061;28;25068;-69
2022/09/28 11:19:02;;;;;;;0.50;0.30;;;15.40;99.90;;;;;;4980184;28;25058;-69
2022/09/28 11:21:31;;;;;;;2.08;0.35;;;15.30;99.90;;;;;;4977674;28;25090;-70
2022/09/28 11:23:56;;;;;;;1.45;0.30;;;15.60;99.90;;;;;;4979226;28;25101;-70
2022/09/28 11:26:22;;;;;;;1.13;0.30;;;15.60;99.90;;;;;;4994232;28;25104;-73
2022/09/28 11:28:52;;;;;;;0.75;0.30;;;15.80;99.90;;;;;;4981998;28;25064;-70
2022/09/28 11:31:26;;;;;;;1.10;0.20;;;15.70;99.90;;;;;;4992189;28;25085;-70
2022/09/28 11:34:05;;;;;;;0.65;0.45;;;15.90;99.90;;;;;;4996196;28;25084;-70
2022/09/28 11:37:07;;;;;;;1.60;0.65;;;16.10;99.90;;;;;;4984190;28;25063;-69
2022/09/28 11:40:06;;;;;;;0.95;0.50;;;16.40;99.90;;;;;;4991359;28;25148;-70
2022/09/28 11:42:42;;;;;;;0.95;0.20;;;16.10;99.90;;;;;;4977245;28;25116;-71
2022/09/28 11:45:23;;;;;;;1.15;0.30;;;16.20;99.90;;;;;;4987457;28;25103;-69
2022/09/28 11:48:11;;;;;;;0.95;0.25;;;16.10;99.90;;;;;;5000079;28;25048;-70
2022/09/28 11:50:40;;;;;;;1.95;0.50;;;16.00;99.90;;;;;;4978289;28;25065;-69
2022/09/28 11:53:16;;;;;;;2.67;0.28;;;16.10;99.90;;;;;;4996677;28;25096;-69
2022/09/28 11:56:17;;;;;;;0.65;0.20;;;16.20;99.90;;;;;;4979242;28;25145;-70
2022/09/28 11:58:51;;;;;;;0.65;0.20;;;16.50;99.90;;;;;;4984871;28;25078;-70
2022/09/28 12:01:30;;;;;;;0.30;0.10;;;16.30;99.90;;;;;;4991253;28;25078;-71
2022/09/28 12:04:02;;;;;;;2.03;0.40;;;15.80;99.90;;;;;;4978715;28;25071;-71
2022/09/28 12:06:36;;;;;;;0.57;0.20;;;15.30;99.90;;;;;;4984143;28;25083;-72
2022/09/28 12:09:21;;;;;;;1.58;0.20;;;14.70;99.90;;;;;;4990053;28;25056;-71
2022/09/28 12:11:54;;;;;;;0.20;0.20;;;14.30;99.90;;;;;;4994916;28;25173;-70
2022/09/28 12:14:34;;;;;;;2.17;0.20;;;14.20;99.90;;;;;;4991934;28;25051;-70
2022/09/28 12:17:05;;;;;;;0.22;0.20;;;14.10;99.90;;;;;;4993035;28;25093;-72
2022/09/28 12:19:56;;;;;;;1.65;1.10;;;13.90;99.90;;;;;;4996293;28;25174;-70
2022/09/28 12:22:30;;;;;;;0.28;0.28;;;13.80;99.90;;;;;;4993145;28;25071;-73
2022/09/28 12:24:57;;;;;;;0.32;0.32;;;13.90;99.90;;;;;;4976829;28;25147;-70
2022/09/28 12:27:30;;;;;;;2.72;0.60;;;13.90;99.90;;;;;;4988134;28;25108;-71
2022/09/28 12:30:11;;;;;;;2.83;0.40;;;13.90;99.90;;;;;;4985758;28;25058;-70
2022/09/28 12:32:57;;;;;;;0.85;0.47;;;14.00;99.90;;;;;;4984720;28;25094;-68
2022/09/28 12:36:00;;;;;;;0.20;0.20;;;14.00;99.90;;;;;;4982046;28;25057;-72
2022/09/28 12:38:43;;;;;;;;;;;13.90;99.90;;;;;;4978171;28;25098;-70
2022/09/28 12:41:28;;;;;;;0.32;0.30;;;13.80;99.90;;;;;;4983177;28;24078;-70
2022/09/28 12:44:16;;;;;;;0.82;0.20;;;13.60;99.90;;;;;;4978698;28;25099;-73
2022/09/28 12:47:14;;;;;;;2.80;0.22;;;13.50;99.90;;;;;;4989793;28;25064;-71
2022/09/28 12:49:59;;;;;;;3.15;0.40;;;13.60;99.90;;;;;;4985905;28;25100;-70
2022/09/28 12:53:01;;;;;;;0.80;0.30;;;13.50;99.90;;;;;;4981439;28;25167;-70
2022/09/28 12:55:55;;;;;;;1.15;0.30;;;13.60;99.90;;;;;;4983498;28;25057;-71
2022/09/28 12:58:36;;;;;;;3.10;0.20;;;13.60;99.90;;;;;;4978108;28;25106;-71
2022/09/28 13:01:47;;;;;;;0.55;0.20;;;13.60;99.90;;;;;;4984530;28;25103;-75
2022/09/28 13:04:32;;;;;;;0.35;0.20;;;13.60;99.90;;;;;;4941922;28;25074;-71
2022/09/28 13:07:21;;;;;;;2.47;0.40;;;13.40;99.90;;;;;;4981621;28;25085;-70
2022/09/28 13:10:01;;;;;;;0.47;0.20;;;13.40;99.90;;;;;;4986434;28;25133;-70
2022/09/28 13:12:57;;;;;;;1.50;0.30;;;13.50;99.90;;;;;;4981029;28;25120;-72
2022/09/28 13:15:33;;;;;;;2.30;0.20;;;13.50;99.90;;;;;;4978735;28;25082;-72
2022/09/28 13:18:15;;;;;;;1.52;0.40;;;13.30;99.90;;;;;;4976953;28;25138;-72
2022/09/28 13:20:57;;;;;;;0.10;0.10;;;13.30;99.90;;;;;;4978960;28;25106;-72
2022/09/28 13:23:33;;;;;;;1.17;0.40;;;13.30;99.90;;;;;;4975348;28;25077;-72
2022/09/28 13:26:09;;;;;;;0.30;0.30;;;13.20;99.90;;;;;;4975610;28;25059;-69
2022/09/28 13:28:36;;;;;;;0.35;0.30;;;13.10;99.90;;;;;;4979413;28;25046;-72